Аргунское

Карта отелей и гостиниц, располагающихся рядом с аэропортом Аргунское :



Аргунское Хабаровский край 47° 57' 12.78" N, 134° 35' 56.2812" E

Аргунское Хабаровский край 47° 57' 12.78" N, 134° 35' 56.2812" E
Код аэродрома ИКАО: 
HC56
Код аэродрома RU: 
ХЦ56
Координаты: 
N47.95355° E134.59897°
Превышение над уровнем моря : 
43
Основная полоса: 
Курс магнитный: 
Длина основной ВПП: 
12
Ширина основной ВПП: 
12
Покрытие основной ВПП: 
Твёрдое (бетон)
Тип: 
Вертодром
Освещение ВПП: 
Нет
Класс аэродрома: 
Статус: 
Действующий
Принадлежность: 
ФСБ
Сайт: 
E-mail аэродрома: 
Страна: 
Россия
Регион: 
Хабаровский край
Город: 
Дополнительная информация: 
Хабаровский край. Погранзастава ФСБ РФ.

Найти трансфер

С помощью этой формы Вы можете найти трансфер из аэропорта Аргунское в город, аэропорт или вокзал:

Карта места

Javascript is required to view this map.

Погода в аэропортах:

Авиационная погода в Ставрополе

Регион: 
Погода METAR: 
URMT 210400Z 12005MPS 0100 R07/M0200N FG VV001 01/01 Q1015 R07/120060 NOSIG RMK QBB030 OBST OBSC QFE721
Время наблюдения: 
2020-02-21T04:00:00Z
Температура C: 
1.0
Точка росы: 
1.0
Направление ветра: 
120
Скорость ветра: 
10
Метеорологическая видимость: 
0.06
Явления погоды: 
FG
Условия полета: 
LIFR
Аэропорт подробнее: 

Авиационная погода в Вадсё

Регион: 
Погода METAR: 
ENVD 210350Z 19011KT 9999 -SN BKN013 M05/M07 Q0987
Время наблюдения: 
2020-02-21T03:50:00Z
Температура C: 
-5.0
Точка росы: 
-7.0
Направление ветра: 
190
Скорость ветра: 
11
Метеорологическая видимость: 
6.21
Явления погоды: 
-SN
Условия полета: 
MVFR

Авиационная погода в Нижнекамске

Регион: 
Погода METAR: 
UWKE 210400Z 23006MPS 0300 R21/0375D FZFG VV001 M02/M02 Q1020 R21/390038 NOSIG RMK QBB040 OBST OBSC QFE748/0997
Время наблюдения: 
2020-02-21T04:00:00Z
Температура C: 
-2.0
Точка росы: 
-2.0
Направление ветра: 
230
Скорость ветра: 
12
Метеорологическая видимость: 
0.19
Явления погоды: 
FZFG
Условия полета: 
LIFR
Аэропорт подробнее: 

Авиационная погода в Чернобаевке

Регион: 
Погода METAR: 
UKOH 210400Z 01003MPS 3400 BR NSC M03/M03 Q1021 R03/CLRD65 NOSIG
Время наблюдения: 
2020-02-21T04:00:00Z
Температура C: 
-3.0
Точка росы: 
-3.0
Направление ветра: 
10
Скорость ветра: 
6
Метеорологическая видимость: 
2.11
Явления погоды: 
BR
Условия полета: 
IFR
Аэропорт подробнее: